MSC Ludovica — HPAF — position and weather

sailwx.info

Track history (hours):
 
Tides and Currents Weather Stations Pressure Air Temp Water Temp Dewpoint Dewpoint Depression Visibility Wind Speed Wind Dir Waves Ship Positions

MSC Ludovica

Last reported at 2016-Sep-24 03:33 UTC. Time now 2016-Sep-25 08:50 UTC.
Position N 19°21' W 095°58'.

Length 301 m; draft 11.2 m.

Type: Ship. MMSI: 351248000.

Date/timePositionNaut miles runAvg speedWind from/ knotsBaromVisibWave heightAir tempDewpointWater temp
2016-Sep-24 03:33N 19°21' W 095°58'1111.0
2016-Sep-24 02:33N 19°12' W 096°05'3 3.0
2016-Sep-24 01:31N 19°13' W 096°08'0 0.0
2016-Sep-24 00:31N 19°13' W 096°08'0 0.0
2016-Sep-23 19:31N 19°13' W 096°08'0 0.0
2016-Sep-23 17:31N 19°13' W 096°08'0 0.0
2016-Sep-23 16:31N 19°13' W 096°08'0 0.0
2016-Sep-23 15:31N 19°13' W 096°08'0 0.0
2016-Sep-23 13:28N 19°13' W 096°08'0 0.0
2016-Sep-23 09:31N 19°13' W 096°08'11 3.7
2016-Sep-23 06:34N 19°14' W 095°56'  
2016-Sep-19 13:04N 10°12' W 080°04'916.0
2016-Sep-19 12:31N 10°03' W 080°03'1616.6
2016-Sep-19 11:33N 09°47' W 080°02'2713.5
2016-Sep-19 09:33N 09°21' W 079°55'1 0.3
2016-Sep-19 07:29N 09°21' W 079°54'0 0.0
2016-Sep-19 06:31N 09°21' W 079°54'2 0.6
2016-Sep-19 03:33N 09°23' W 079°55'3 2.6
2016-Sep-19 02:28N 09°25' W 079°56'0 0.1
2016-Sep-19 00:33N 09°25' W 079°56'0 0.0
2016-Sep-18 19:33N 09°25' W 079°56'0 0.0
2016-Sep-18 15:28N 09°25' W 079°56'0 0.0
2016-Sep-18 14:33N 09°25' W 079°56'6 1.5
2016-Sep-18 10:33N 09°31' W 079°57'1 0.9
2016-Sep-18 09:33N 09°31' W 079°58'  
Track history (hours):
 
Tides and Currents Weather Stations Pressure Air Temp Water Temp Dewpoint Dewpoint Depression Visibility Wind Speed Wind Dir Waves Ship Positions

MSC Ludovica

Last reported at 2016-Sep-24 03:33 UTC. Time now 2016-Sep-25 08:50 UTC.
Position N 19°21' W 095°58'.

Length 301 m; draft 11.2 m.

Type: Ship. MMSI: 351248000.

Date/timePositionNaut miles runAvg speedWind from/ knotsBaromVisibWave heightAir tempDewpointWater temp
2016-Sep-24 03:33N 19°21' W 095°58'1111.0
2016-Sep-24 02:33N 19°12' W 096°05'3 3.0
2016-Sep-24 01:31N 19°13' W 096°08'0 0.0
2016-Sep-24 00:31N 19°13' W 096°08'0 0.0
2016-Sep-23 19:31N 19°13' W 096°08'0 0.0
2016-Sep-23 17:31N 19°13' W 096°08'0 0.0
2016-Sep-23 16:31N 19°13' W 096°08'0 0.0
2016-Sep-23 15:31N 19°13' W 096°08'0 0.0
2016-Sep-23 13:28N 19°13' W 096°08'0 0.0
2016-Sep-23 09:31N 19°13' W 096°08'11 3.7
2016-Sep-23 06:34N 19°14' W 095°56'  
2016-Sep-19 13:04N 10°12' W 080°04'916.0
2016-Sep-19 12:31N 10°03' W 080°03'1616.6
2016-Sep-19 11:33N 09°47' W 080°02'2713.5
2016-Sep-19 09:33N 09°21' W 079°55'1 0.3
2016-Sep-19 07:29N 09°21' W 079°54'0 0.0
2016-Sep-19 06:31N 09°21' W 079°54'2 0.6
2016-Sep-19 03:33N 09°23' W 079°55'3 2.6
2016-Sep-19 02:28N 09°25' W 079°56'0 0.1
2016-Sep-19 00:33N 09°25' W 079°56'0 0.0
2016-Sep-18 19:33N 09°25' W 079°56'0 0.0
2016-Sep-18 15:28N 09°25' W 079°56'0 0.0
2016-Sep-18 14:33N 09°25' W 079°56'6 1.5
2016-Sep-18 10:33N 09°31' W 079°57'1 0.9
2016-Sep-18 09:33N 09°31' W 079°58'  

Dump ship's entire track history